createdAt,value
2018-12-31T00:02:09.210Z,4.20
2018-12-31T00:04:40.366Z,3.87
2018-12-31T00:07:11.446Z,3.53
2018-12-31T00:09:42.622Z,3.27
2018-12-31T00:12:13.768Z,5.00
2018-12-31T00:14:45.920Z,3.50
2018-12-31T00:17:17.056Z,4.27
2018-12-31T00:19:49.445Z,4.13
2018-12-31T00:22:20.643Z,4.47
2018-12-31T00:24:51.802Z,6.33
2018-12-31T00:27:24.658Z,4.37
2018-12-31T00:29:55.825Z,5.43
2018-12-31T00:32:26.885Z,4.50
2018-12-31T00:34:58.126Z,4.30
2018-12-31T00:37:33.042Z,3.90
2018-12-31T00:40:04.384Z,4.03
2018-12-31T00:42:35.548Z,5.20
2018-12-31T00:45:06.838Z,5.57
2018-12-31T00:47:37.940Z,4.73
2018-12-31T00:50:10.861Z,4.80
2018-12-31T00:52:42.826Z,3.90
2018-12-31T00:55:13.897Z,5.40
2018-12-31T00:57:45.509Z,3.53
2018-12-31T01:00:17.125Z,5.87
2018-12-31T01:02:48.274Z,4.43
2018-12-31T01:05:19.432Z,3.90
2018-12-31T01:07:50.677Z,4.87
2018-12-31T01:10:21.751Z,4.03
2018-12-31T01:12:52.824Z,4.63
2018-12-31T01:15:23.941Z,5.07
2018-12-31T01:17:55.079Z,4.33
2018-12-31T01:20:26.187Z,3.73
2018-12-31T01:22:57.405Z,5.77
2018-12-31T01:25:28.482Z,3.63
2018-12-31T01:27:59.665Z,3.90
2018-12-31T01:30:30.714Z,4.67
2018-12-31T01:33:01.840Z,3.37
2018-12-31T01:35:32.930Z,4.67
2018-12-31T01:38:04.076Z,3.40
2018-12-31T01:40:35.266Z,3.90
2018-12-31T01:43:06.324Z,3.83
2018-12-31T01:45:37.455Z,2.83
2018-12-31T01:48:08.507Z,3.20
2018-12-31T01:50:39.652Z,3.93
2018-12-31T01:53:10.709Z,5.10
2018-12-31T01:55:41.831Z,4.77
2018-12-31T01:58:13.012Z,3.43
2018-12-31T02:00:44.203Z,3.80
2018-12-31T02:03:15.348Z,7.40
2018-12-31T02:05:46.561Z,2.70
2018-12-31T02:08:17.668Z,3.27
2018-12-31T02:10:48.874Z,3.53
2018-12-31T02:13:19.948Z,3.77
2018-12-31T02:15:50.991Z,3.73
2018-12-31T02:18:22.153Z,4.03
2018-12-31T02:20:53.324Z,4.23
2018-12-31T02:23:24.464Z,6.93
2018-12-31T02:25:55.604Z,4.67
2018-12-31T02:28:26.703Z,5.10
2018-12-31T02:30:59.096Z,5.27
2018-12-31T02:33:30.258Z,5.77
2018-12-31T02:36:01.361Z,5.40
2018-12-31T02:38:32.633Z,6.07
2018-12-31T02:41:03.906Z,5.57
2018-12-31T02:43:35.036Z,5.50
2018-12-31T02:46:06.237Z,4.43
2018-12-31T02:48:37.444Z,4.67
2018-12-31T02:51:08.603Z,5.30
2018-12-31T02:53:39.743Z,5.27
2018-12-31T02:56:10.883Z,5.30
2018-12-31T02:58:41.969Z,3.30
2018-12-31T03:01:13.126Z,6.67
2018-12-31T03:03:44.171Z,3.03
2018-12-31T03:06:15.236Z,8.60
2018-12-31T03:08:46.326Z,4.90
2018-12-31T03:11:17.447Z,6.97
2018-12-31T03:13:48.511Z,6.60
2018-12-31T03:16:19.734Z,5.10
2018-12-31T03:18:50.779Z,5.40
2018-12-31T03:21:21.895Z,6.80
2018-12-31T03:23:53.035Z,8.20
2018-12-31T03:26:24.258Z,5.60
2018-12-31T03:28:55.308Z,6.90
2018-12-31T03:31:26.479Z,6.17
2018-12-31T03:33:57.600Z,6.43
2018-12-31T03:36:28.638Z,5.00
2018-12-31T03:38:59.805Z,5.87
2018-12-31T03:41:31.115Z,7.90
2018-12-31T03:44:02.294Z,6.10
2018-12-31T03:46:33.378Z,6.80
2018-12-31T03:49:04.439Z,6.87
2018-12-31T03:51:35.504Z,5.87
2018-12-31T03:54:06.839Z,6.30
2018-12-31T03:56:38.019Z,9.60
2018-12-31T03:59:09.122Z,7.13
2018-12-31T04:01:40.163Z,8.00
2018-12-31T04:04:11.260Z,5.73
2018-12-31T04:06:42.316Z,6.10
2018-12-31T04:09:13.427Z,6.87
2018-12-31T04:11:44.461Z,6.43
2018-12-31T04:14:15.575Z,7.00
2018-12-31T04:16:46.655Z,10.70
2018-12-31T04:19:17.772Z,10.13
2018-12-31T04:21:48.849Z,8.80
2018-12-31T04:24:19.981Z,10.70
2018-12-31T04:26:51.186Z,9.27
2018-12-31T04:29:22.254Z,6.53
2018-12-31T04:31:53.431Z,10.07
2018-12-31T04:34:24.512Z,10.43
2018-12-31T04:36:55.626Z,12.03
2018-12-31T04:39:26.789Z,10.80
2018-12-31T04:41:57.906Z,10.23
2018-12-31T04:44:28.977Z,9.63
2018-12-31T04:47:00.272Z,10.77
2018-12-31T04:49:31.524Z,8.23
2018-12-31T04:52:02.695Z,9.73
2018-12-31T04:54:33.810Z,8.07
2018-12-31T04:57:05.093Z,7.53
2018-12-31T04:59:36.227Z,8.53
2018-12-31T05:02:07.373Z,9.60
2018-12-31T05:04:38.517Z,6.87
2018-12-31T05:07:09.615Z,8.43
2018-12-31T05:09:40.883Z,12.10
2018-12-31T05:12:11.914Z,8.63
2018-12-31T05:14:43.035Z,8.80
2018-12-31T05:17:14.121Z,11.83
2018-12-31T05:19:45.315Z,9.10
2018-12-31T05:22:16.498Z,10.17
2018-12-31T05:24:47.641Z,10.90
2018-12-31T05:27:18.708Z,10.20
2018-12-31T05:29:49.780Z,8.93
2018-12-31T05:32:20.845Z,10.23
2018-12-31T05:34:51.909Z,12.67
2018-12-31T05:37:23.004Z,9.23
2018-12-31T05:39:54.102Z,8.80
2018-12-31T05:42:25.166Z,12.40
2018-12-31T05:44:56.216Z,14.10
2018-12-31T05:47:27.367Z,9.23
2018-12-31T05:49:58.450Z,13.00
2018-12-31T05:52:29.567Z,10.07
2018-12-31T05:55:00.640Z,10.73
2018-12-31T05:57:31.740Z,9.87
2018-12-31T06:00:02.918Z,11.53
2018-12-31T06:02:33.964Z,11.30
2018-12-31T06:05:05.184Z,12.77
2018-12-31T06:07:36.352Z,13.20
2018-12-31T06:10:07.494Z,9.27
2018-12-31T06:12:38.583Z,8.67
2018-12-31T06:15:09.723Z,17.70
2018-12-31T06:17:40.775Z,11.97
2018-12-31T06:20:11.846Z,9.13
2018-12-31T06:22:42.915Z,13.23
2018-12-31T06:25:14.021Z,12.87
2018-12-31T06:27:45.328Z,12.30
2018-12-31T06:30:16.395Z,12.70
2018-12-31T06:32:47.554Z,10.60
2018-12-31T06:35:18.707Z,12.97
2018-12-31T06:37:49.852Z,13.33
2018-12-31T06:40:21.046Z,10.63
2018-12-31T06:42:52.130Z,6.83
2018-12-31T06:45:23.367Z,11.73
2018-12-31T06:47:54.451Z,9.67
2018-12-31T06:50:25.630Z,11.40
2018-12-31T06:52:57.638Z,12.10
2018-12-31T06:55:28.909Z,11.43
2018-12-31T06:58:00.180Z,15.57
2018-12-31T07:00:31.586Z,8.03
2018-12-31T07:03:03.646Z,9.80
2018-12-31T07:05:34.841Z,7.80
2018-12-31T07:08:05.947Z,9.70
2018-12-31T07:10:37.217Z,9.10
2018-12-31T07:13:08.379Z,8.33
2018-12-31T07:15:39.645Z,9.40
2018-12-31T07:18:10.751Z,14.77
2018-12-31T07:20:41.948Z,12.50
2018-12-31T07:23:13.130Z,10.03
2018-12-31T07:25:44.576Z,14.20
2018-12-31T07:28:15.749Z,7.73
2018-12-31T07:30:47.105Z,10.67
2018-12-31T07:33:21.176Z,8.37
2018-12-31T07:35:52.304Z,11.37
2018-12-31T07:38:23.373Z,16.57
2018-12-31T07:40:54.523Z,11.93
2018-12-31T07:43:25.637Z,13.93
2018-12-31T07:45:56.829Z,10.67
2018-12-31T07:48:27.888Z,12.77
2018-12-31T07:50:59.056Z,15.07
2018-12-31T07:53:30.198Z,15.53
2018-12-31T07:56:01.213Z,10.73
2018-12-31T07:58:32.367Z,8.93
2018-12-31T08:01:03.597Z,10.07
2018-12-31T08:03:34.683Z,9.80
2018-12-31T08:06:06.353Z,10.47
2018-12-31T08:08:37.495Z,10.20
2018-12-31T08:11:08.659Z,10.67
2018-12-31T08:13:39.745Z,17.43
2018-12-31T08:16:10.924Z,16.87
2018-12-31T08:18:42.091Z,17.80
2018-12-31T08:21:13.863Z,20.70
2018-12-31T08:23:45.218Z,15.27
2018-12-31T08:26:16.389Z,16.77
2018-12-31T08:28:47.647Z,16.67
2018-12-31T08:31:23.403Z,17.33
2018-12-31T08:33:55.674Z,18.10
2018-12-31T08:36:26.814Z,12.20
2018-12-31T08:38:59.171Z,10.43
2018-12-31T08:41:31.668Z,13.53
2018-12-31T08:44:02.996Z,12.27
2018-12-31T08:46:34.249Z,12.67
2018-12-31T08:49:05.353Z,11.27
2018-12-31T08:51:36.644Z,15.87
2018-12-31T08:54:07.828Z,15.43
2018-12-31T08:56:40.171Z,16.10
2018-12-31T08:59:14.351Z,15.20
2018-12-31T09:01:46.050Z,19.33
2018-12-31T09:04:17.356Z,15.93
2018-12-31T09:06:48.681Z,16.50
2018-12-31T09:09:20.010Z,16.10
2018-12-31T09:11:52.271Z,15.40
2018-12-31T09:14:23.557Z,16.20
2018-12-31T09:16:54.860Z,17.43
2018-12-31T09:19:26.321Z,14.33
2018-12-31T09:21:57.585Z,13.20
2018-12-31T09:24:28.786Z,19.47
2018-12-31T09:27:00.002Z,14.93
2018-12-31T09:29:31.263Z,16.57
2018-12-31T09:32:02.637Z,17.77
2018-12-31T09:34:33.895Z,14.13
2018-12-31T09:37:05.308Z,13.80
2018-12-31T09:39:37.114Z,20.27
2018-12-31T09:42:08.596Z,13.93
2018-12-31T09:44:39.719Z,12.00
2018-12-31T09:47:10.894Z,17.60
2018-12-31T09:49:42.203Z,14.27
2018-12-31T09:52:13.422Z,14.27
2018-12-31T09:54:44.638Z,13.00
2018-12-31T09:57:16.016Z,11.13
2018-12-31T09:59:47.530Z,8.43
2018-12-31T10:02:18.693Z,10.33
2018-12-31T10:04:49.859Z,9.97
2018-12-31T10:07:20.969Z,12.57
2018-12-31T10:09:52.367Z,11.03
2018-12-31T10:12:23.574Z,8.93
2018-12-31T10:14:54.707Z,10.33
2018-12-31T10:17:25.911Z,10.53
2018-12-31T10:19:57.134Z,10.13
2018-12-31T10:22:28.261Z,11.37
2018-12-31T10:24:59.411Z,9.13
2018-12-31T10:27:30.686Z,8.60
2018-12-31T10:30:01.999Z,12.37
2018-12-31T10:32:33.147Z,8.63
2018-12-31T10:35:10.239Z,14.93
2018-12-31T10:37:41.514Z,16.23
2018-12-31T10:40:12.638Z,11.37
2018-12-31T10:42:43.956Z,11.03
2018-12-31T10:45:15.062Z,10.53
2018-12-31T10:47:46.252Z,8.43
2018-12-31T10:50:17.460Z,10.13
2018-12-31T10:52:48.713Z,16.57
2018-12-31T10:55:19.884Z,11.33
2018-12-31T10:57:51.075Z,11.67
2018-12-31T11:00:22.256Z,15.03
2018-12-31T11:02:54.574Z,16.17
2018-12-31T11:05:25.702Z,13.37
2018-12-31T11:07:57.139Z,16.13
2018-12-31T11:10:28.264Z,13.50
2018-12-31T11:12:59.437Z,13.13
2018-12-31T11:15:30.570Z,11.27
2018-12-31T11:18:01.826Z,12.73
2018-12-31T11:20:33.082Z,14.53
2018-12-31T11:23:04.327Z,15.93
2018-12-31T11:25:35.469Z,14.07
2018-12-31T11:28:06.733Z,10.43
2018-12-31T11:30:37.889Z,14.13
2018-12-31T11:33:09.060Z,13.97
2018-12-31T11:35:40.315Z,15.73
2018-12-31T11:38:11.471Z,11.83
2018-12-31T11:40:42.645Z,14.03
2018-12-31T11:43:13.957Z,10.57
2018-12-31T11:45:51.114Z,14.03
2018-12-31T11:48:22.439Z,13.23
2018-12-31T11:50:53.662Z,14.83
2018-12-31T11:53:24.844Z,14.37
2018-12-31T11:55:56.111Z,12.93
2018-12-31T11:58:27.351Z,11.87
2018-12-31T12:00:58.514Z,18.00
2018-12-31T12:03:29.716Z,13.37
2018-12-31T12:06:00.909Z,16.90
2018-12-31T12:08:32.047Z,12.27
2018-12-31T12:11:03.170Z,29.90
2018-12-31T12:13:34.305Z,17.80
2018-12-31T12:16:05.563Z,18.70
2018-12-31T12:18:36.688Z,49.37
2018-12-31T12:21:07.867Z,14.77
2018-12-31T12:23:39.480Z,13.23
2018-12-31T12:26:10.643Z,17.03
2018-12-31T12:28:41.943Z,16.70
2018-12-31T12:31:16.411Z,13.47
2018-12-31T12:33:48.776Z,14.20
2018-12-31T12:36:20.056Z,12.73
2018-12-31T12:38:51.206Z,16.43
2018-12-31T12:41:22.403Z,16.17
2018-12-31T12:43:55.801Z,15.57
2018-12-31T12:46:26.915Z,15.63
2018-12-31T12:48:58.135Z,11.93
2018-12-31T12:51:31.018Z,12.47
2018-12-31T12:54:02.502Z,18.60
2018-12-31T12:56:33.714Z,16.03
2018-12-31T12:59:04.923Z,18.07
2018-12-31T13:01:36.211Z,15.43
2018-12-31T13:04:07.397Z,12.03
2018-12-31T13:06:38.650Z,13.37
2018-12-31T13:09:09.723Z,13.77
2018-12-31T13:11:40.999Z,12.37
2018-12-31T13:14:12.321Z,13.33
2018-12-31T13:16:44.042Z,14.53
2018-12-31T13:19:15.188Z,17.13
2018-12-31T13:21:46.319Z,15.03
2018-12-31T13:24:18.904Z,17.47
2018-12-31T13:26:50.575Z,14.23
2018-12-31T13:29:22.780Z,13.47
2018-12-31T13:31:53.974Z,14.90
2018-12-31T13:34:25.082Z,15.00
2018-12-31T13:37:05.453Z,12.33
2018-12-31T13:39:36.727Z,15.73
2018-12-31T13:42:08.344Z,16.37
2018-12-31T13:44:39.666Z,13.53
2018-12-31T13:47:11.093Z,14.20
2018-12-31T13:49:42.361Z,14.97
2018-12-31T13:52:13.509Z,11.57
2018-12-31T13:54:44.579Z,10.40
2018-12-31T13:57:15.764Z,16.57
2018-12-31T13:59:46.988Z,12.97
2018-12-31T14:02:18.160Z,11.73
2018-12-31T14:04:49.239Z,13.67
2018-12-31T14:07:20.589Z,14.00
2018-12-31T14:09:51.883Z,15.80
2018-12-31T14:12:23.081Z,17.93
2018-12-31T14:14:54.360Z,14.67
2018-12-31T14:17:25.784Z,10.47
2018-12-31T14:19:58.144Z,12.03
2018-12-31T14:22:30.162Z,19.47
2018-12-31T14:25:02.658Z,17.87
2018-12-31T14:27:34.017Z,14.03
2018-12-31T14:30:06.038Z,11.63
2018-12-31T14:32:37.198Z,17.47
2018-12-31T14:35:08.727Z,17.20
2018-12-31T14:37:41.223Z,20.70
2018-12-31T14:40:12.627Z,23.47
2018-12-31T14:42:43.763Z,22.30
2018-12-31T14:45:15.113Z,25.27
2018-12-31T14:47:50.705Z,22.37
2018-12-31T14:54:15.389Z,21.52
2018-12-31T14:56:46.189Z,15.13
2018-12-31T14:59:17.317Z,15.63
2018-12-31T15:02:00.892Z,16.67
2018-12-31T15:04:32.177Z,13.70
2018-12-31T15:07:03.354Z,18.00
2018-12-31T15:09:34.569Z,23.00
2018-12-31T15:12:05.662Z,15.53
2018-12-31T15:14:36.975Z,16.97
2018-12-31T15:17:08.154Z,23.33
2018-12-31T15:19:39.758Z,18.67
2018-12-31T15:22:10.864Z,20.07
2018-12-31T15:24:42.058Z,18.60
2018-12-31T15:27:13.526Z,18.13
2018-12-31T15:29:44.797Z,29.80
2018-12-31T15:32:17.192Z,28.93
2018-12-31T15:34:48.346Z,27.80
2018-12-31T15:37:19.608Z,34.33
2018-12-31T15:39:50.764Z,31.57
2018-12-31T15:42:21.967Z,26.77
2018-12-31T15:44:56.269Z,30.13
2018-12-31T15:47:27.897Z,23.47
2018-12-31T15:49:59.182Z,30.23
2018-12-31T15:52:30.388Z,31.47
2018-12-31T15:55:01.630Z,38.43
2018-12-31T15:57:32.859Z,40.73
2018-12-31T16:00:04.538Z,41.27
2018-12-31T16:02:36.192Z,45.37
2018-12-31T16:05:08.032Z,35.53
2018-12-31T16:08:06.254Z,41.70
2018-12-31T16:10:38.328Z,39.80
2018-12-31T16:13:10.444Z,38.70
2018-12-31T16:15:41.886Z,36.43
2018-12-31T16:18:13.104Z,39.60
2018-12-31T16:20:44.387Z,34.20
2018-12-31T16:23:15.676Z,32.67
2018-12-31T16:25:46.909Z,32.80
2018-12-31T16:28:18.293Z,34.80
2018-12-31T16:30:50.219Z,37.20
2018-12-31T16:33:21.379Z,35.07
2018-12-31T16:35:52.668Z,35.30
2018-12-31T16:38:23.841Z,40.73
2018-12-31T16:40:55.055Z,42.57
2018-12-31T16:43:26.286Z,38.53
2018-12-31T16:45:57.550Z,42.43
2018-12-31T16:48:28.670Z,37.93
2018-12-31T16:51:00.002Z,38.10
2018-12-31T16:53:34.582Z,55.90
2018-12-31T16:56:05.739Z,56.30
2018-12-31T16:58:37.037Z,56.90
2018-12-31T17:01:09.556Z,65.00
2018-12-31T17:03:40.898Z,66.17
2018-12-31T17:06:12.202Z,60.50
2018-12-31T17:08:43.491Z,58.43
2018-12-31T17:11:14.803Z,48.33
2018-12-31T17:13:46.047Z,43.80
2018-12-31T17:16:17.480Z,47.43
2018-12-31T17:18:48.818Z,43.07
2018-12-31T17:21:19.944Z,41.27
2018-12-31T17:24:01.214Z,41.33
2018-12-31T17:26:32.367Z,41.57
2018-12-31T17:29:03.601Z,50.97
2018-12-31T17:31:34.980Z,43.07
2018-12-31T17:34:06.300Z,44.87
2018-12-31T17:36:37.681Z,40.07
2018-12-31T17:39:10.914Z,57.30
2018-12-31T17:41:42.145Z,53.87
2018-12-31T17:44:13.405Z,48.33
2018-12-31T17:46:45.418Z,50.73
2018-12-31T17:49:16.728Z,50.30
2018-12-31T17:51:55.594Z,47.87
2018-12-31T17:54:21.821Z,45.07
2018-12-31T17:56:53.246Z,40.30
2018-12-31T17:59:24.412Z,43.43
2018-12-31T18:01:56.948Z,53.00
2018-12-31T18:04:28.187Z,63.17
2018-12-31T18:07:00.986Z,68.50
2018-12-31T18:09:32.242Z,71.00
2018-12-31T18:12:03.574Z,85.70
2018-12-31T18:14:34.793Z,118.17
2018-12-31T18:17:06.025Z,101.13
2018-12-31T18:19:37.342Z,95.00
2018-12-31T18:22:08.569Z,94.57
2018-12-31T18:24:39.843Z,90.17
2018-12-31T18:27:11.133Z,96.73
2018-12-31T18:29:44.705Z,105.07
2018-12-31T18:32:15.940Z,108.87
2018-12-31T18:34:51.239Z,107.60
2018-12-31T18:37:30.065Z,103.10
2018-12-31T18:40:10.665Z,105.73
2018-12-31T18:42:45.028Z,98.60
2018-12-31T18:45:16.213Z,325.90
2018-12-31T18:47:50.572Z,218.53
2018-12-31T18:50:21.909Z,142.80
2018-12-31T18:52:53.128Z,108.20
2018-12-31T18:55:24.437Z,77.33
2018-12-31T18:57:55.676Z,69.87
2018-12-31T19:00:26.979Z,70.93
2018-12-31T19:02:58.375Z,75.87
2018-12-31T19:05:29.595Z,72.73
2018-12-31T19:08:01.409Z,74.70
2018-12-31T19:10:32.795Z,77.77
2018-12-31T19:13:04.199Z,92.77
2018-12-31T19:15:35.488Z,106.23
2018-12-31T19:18:09.891Z,83.87
2018-12-31T19:20:41.873Z,81.27
2018-12-31T19:23:18.177Z,79.33
2018-12-31T19:25:51.076Z,90.03
2018-12-31T19:28:22.542Z,93.90
2018-12-31T19:30:54.677Z,94.83
2018-12-31T19:33:26.637Z,96.77
2018-12-31T19:35:58.530Z,102.77
2018-12-31T19:38:29.961Z,105.17
2018-12-31T19:41:01.829Z,98.27
2018-12-31T19:43:33.520Z,100.53
2018-12-31T19:46:04.847Z,101.20
2018-12-31T19:48:39.157Z,109.70
2018-12-31T19:51:10.695Z,81.23
2018-12-31T19:53:44.754Z,89.70
2018-12-31T19:56:17.174Z,76.97
2018-12-31T19:58:48.590Z,70.37
2018-12-31T20:01:24.005Z,75.07
2018-12-31T20:03:55.199Z,64.50
2018-12-31T20:06:26.684Z,58.73
2018-12-31T20:08:57.956Z,63.83
2018-12-31T20:11:29.499Z,61.50
2018-12-31T20:14:00.904Z,67.13
2018-12-31T20:16:32.611Z,71.20
2018-12-31T20:19:03.907Z,73.13
2018-12-31T20:21:35.388Z,66.73
2018-12-31T20:24:06.898Z,68.03
2018-12-31T20:26:40.197Z,63.90
2018-12-31T20:29:12.433Z,63.63
2018-12-31T20:31:43.769Z,67.20
2018-12-31T20:34:15.042Z,70.17
2018-12-31T20:36:46.363Z,78.10
2018-12-31T20:39:17.620Z,72.27
2018-12-31T20:41:49.139Z,75.50
2018-12-31T20:44:22.396Z,83.37
2018-12-31T20:46:53.632Z,101.27
2018-12-31T20:49:24.838Z,117.10
2018-12-31T20:51:56.082Z,93.27
2018-12-31T20:54:27.452Z,77.93
2018-12-31T20:56:58.916Z,90.07
2018-12-31T20:59:30.225Z,94.73
2018-12-31T21:02:01.607Z,90.03
2018-12-31T21:04:33.080Z,81.30
2018-12-31T21:07:05.457Z,81.80
2018-12-31T21:09:37.954Z,76.83
2018-12-31T21:12:09.237Z,74.77
2018-12-31T21:14:40.417Z,81.13
2018-12-31T21:17:11.962Z,74.57
2018-12-31T21:19:43.130Z,93.17
2018-12-31T21:22:14.492Z,93.50
2018-12-31T21:24:45.613Z,83.93
2018-12-31T21:27:16.816Z,83.33
2018-12-31T21:29:48.269Z,79.97
2018-12-31T21:32:20.601Z,85.80
2018-12-31T21:34:52.141Z,81.67
2018-12-31T21:37:23.495Z,80.23
2018-12-31T21:39:55.005Z,82.07
2018-12-31T21:42:26.339Z,77.33
2018-12-31T21:44:57.558Z,82.50
2018-12-31T21:47:28.922Z,76.83
2018-12-31T21:50:00.264Z,79.73
2018-12-31T21:52:33.528Z,73.30
2018-12-31T21:55:05.199Z,77.10
2018-12-31T21:57:36.679Z,72.00
2018-12-31T22:00:08.971Z,67.53
2018-12-31T22:02:40.713Z,74.60
2018-12-31T22:05:11.999Z,67.93
2018-12-31T22:07:43.237Z,71.27
2018-12-31T22:10:14.477Z,78.33
2018-12-31T22:12:45.685Z,71.03
2018-12-31T22:15:17.017Z,77.67
2018-12-31T22:17:51.056Z,78.33
2018-12-31T22:20:22.279Z,77.33
2018-12-31T22:22:53.526Z,80.10
2018-12-31T22:25:24.765Z,82.00
2018-12-31T22:27:56.279Z,77.50
2018-12-31T22:30:27.434Z,81.13
2018-12-31T22:32:58.687Z,80.33
2018-12-31T22:35:30.123Z,74.47
2018-12-31T22:38:01.584Z,68.27
2018-12-31T22:40:32.786Z,75.70
2018-12-31T22:43:06.269Z,81.57
2018-12-31T22:45:39.823Z,79.30
2018-12-31T22:48:11.355Z,85.10
2018-12-31T22:50:42.692Z,74.63
2018-12-31T22:53:13.897Z,75.43
2018-12-31T22:55:45.137Z,75.90
2018-12-31T22:58:16.285Z,74.27
2018-12-31T23:00:47.857Z,68.03
2018-12-31T23:03:19.354Z,70.57
2018-12-31T23:05:51.091Z,70.33
2018-12-31T23:08:22.384Z,71.03
2018-12-31T23:10:54.745Z,97.30
2018-12-31T23:13:30.064Z,93.50
2018-12-31T23:16:02.200Z,94.70
2018-12-31T23:18:39.949Z,86.37
2018-12-31T23:21:12.872Z,84.27
2018-12-31T23:23:44.473Z,93.53
2018-12-31T23:26:15.969Z,93.47
2018-12-31T23:28:52.541Z,91.67
2018-12-31T23:31:19.985Z,84.50
2018-12-31T23:33:51.363Z,118.83
2018-12-31T23:36:23.006Z,115.23
2018-12-31T23:38:54.731Z,113.60
2018-12-31T23:41:25.946Z,109.53
2018-12-31T23:43:57.211Z,125.83
2018-12-31T23:46:28.415Z,129.90
2018-12-31T23:49:00.172Z,152.37
2018-12-31T23:51:33.051Z,144.40
2018-12-31T23:54:04.446Z,134.30
2018-12-31T23:56:35.807Z,147.13
2018-12-31T23:59:07.124Z,138.87
